Time;durP1;ratioP1;P1;durP2;ratioP2;P2;SDS_P1;SDS_P2;PMS_P1;PMS_P2;Temp;Humidity;BMP_temperature;BMP_pressure;BME280_temperature;BME280_humidity;BME280_pressure;Samples;Min_cycle;Max_cycle;Signal;HPM_P1;HPM_P2
2021/01/18 00:01:53;;;;;;;13.63;4.07;;;;;;;;;;4406919;32;20125;-74
2021/01/18 00:04:18;;;;;;;15.70;3.97;;;;;;;;;;4392717;32;20192;-73
2021/01/18 00:06:43;;;;;;;10.40;3.63;;;;;;;;;;4407055;32;20134;-73
2021/01/18 00:09:16;;;;;;;12.83;3.90;;;;;;;;;;4406329;32;20204;-73
2021/01/18 00:11:44;;;;;;;11.37;4.03;;;;;;;;;;4406785;32;20450;-73
2021/01/18 00:14:09;;;;;;;15.77;4.20;;;;;;;;;;4392419;32;20194;-73
2021/01/18 00:16:35;;;;;;;15.20;5.10;;;;;;;;;;4406303;32;20553;-73
2021/01/18 00:19:00;;;;;;;14.57;3.80;;;;;;;;;;4406612;32;20162;-74
2021/01/18 00:21:25;;;;;;;12.60;3.73;;;;;;;;;;4392338;32;20184;-73
2021/01/18 00:23:50;;;;;;;15.90;4.30;;;;;;;;;;4406144;32;20138;-74
2021/01/18 00:26:18;;;;;;;14.30;4.73;;;;;;;;;;4406892;32;20149;-74
2021/01/18 00:28:43;;;;;;;10.17;3.93;;;;;;;;;;4405934;32;20203;-74
2021/01/18 00:31:09;;;;;;;15.67;4.30;;;;;;;;;;4405997;32;20142;-73
2021/01/18 00:33:45;;;;;;;19.20;4.43;;;;;;;;;;4406009;32;20199;-74
2021/01/18 00:36:10;;;;;;;12.97;4.60;;;;;;;;;;4406890;32;20160;-73
2021/01/18 00:38:35;;;;;;;13.53;3.60;;;;;;;;;;4405842;32;20166;-73
2021/01/18 00:41:01;;;;;;;16.07;4.30;;;;;;;;;;4405788;32;20477;-73
2021/01/18 00:43:28;;;;;;;15.20;4.23;;;;;;;;;;4391398;32;20206;-73
2021/01/18 00:45:53;;;;;;;17.93;4.57;;;;;;;;;;4406157;32;20137;-73
2021/01/18 00:48:18;;;;;;;13.20;3.97;;;;;;;;;;4406515;32;20175;-73
2021/01/18 00:50:44;;;;;;;19.80;4.93;;;;;;;;;;4391982;32;20201;-73
2021/01/18 00:53:09;;;;;;;13.20;4.40;;;;;;;;;;4405737;32;20153;-74
2021/01/18 00:55:34;;;;;;;12.80;4.23;;;;;;;;;;4392317;32;20197;-73
2021/01/18 00:58:00;;;;;;;13.53;4.57;;;;;;;;;;4406156;32;20205;-73
2021/01/18 01:00:29;;;;;;;15.47;4.73;;;;;;;;;;4391724;32;20224;-74
2021/01/18 01:02:55;;;;;;;21.70;4.53;;;;;;;;;;4406652;32;20187;-73
2021/01/18 01:05:46;;;;;;;13.33;4.03;;;;;;;;;;4405497;32;20138;-74
2021/01/18 01:08:12;;;;;;;13.17;4.47;;;;;;;;;;4402536;32;20185;-74
2021/01/18 01:10:37;;;;;;;17.13;4.47;;;;;;;;;;4391669;32;20157;-74
2021/01/18 01:13:06;;;;;;;12.80;3.73;;;;;;;;;;4392169;32;20158;-74
2021/01/18 01:15:32;;;;;;;13.80;4.13;;;;;;;;;;4405937;32;20165;-73
2021/01/18 01:17:57;;;;;;;13.07;4.30;;;;;;;;;;4405672;32;20142;-75
2021/01/18 01:20:23;;;;;;;16.73;4.20;;;;;;;;;;4405311;32;20176;-74
2021/01/18 01:22:52;;;;;;;16.30;4.30;;;;;;;;;;4405664;32;20134;-74
2021/01/18 01:25:19;;;;;;;15.30;4.27;;;;;;;;;;4391897;32;20491;-73
2021/01/18 01:27:44;;;;;;;13.60;4.00;;;;;;;;;;4391540;32;20617;-74
2021/01/18 01:30:29;;;;;;;13.20;4.67;;;;;;;;;;4405171;32;20134;-74
2021/01/18 01:32:55;;;;;;;14.77;4.80;;;;;;;;;;4405383;32;20262;-74
2021/01/18 01:35:24;;;;;;;12.77;4.37;;;;;;;;;;4405962;32;20164;-73
2021/01/18 01:37:50;;;;;;;14.67;4.60;;;;;;;;;;4390939;32;20526;-74
2021/01/18 01:40:16;;;;;;;17.03;4.97;;;;;;;;;;4404958;32;20189;-74
2021/01/18 01:42:42;;;;;;;14.70;4.73;;;;;;;;;;4405712;32;20473;-73
2021/01/18 01:45:08;;;;;;;13.87;4.80;;;;;;;;;;4405340;32;20551;-74
2021/01/18 01:47:35;;;;;;;14.80;4.90;;;;;;;;;;4405927;32;20176;-74
2021/01/18 01:50:03;;;;;;;13.73;5.43;;;;;;;;;;4404922;32;20137;-74
2021/01/18 01:52:34;;;;;;;17.63;5.37;;;;;;;;;;4404842;32;20146;-73
2021/01/18 01:55:07;;;;;;;11.30;5.10;;;;;;;;;;4391580;32;20166;-73
2021/01/18 01:57:41;;;;;;;18.93;6.07;;;;;;;;;;4405890;32;20203;-73
2021/01/18 02:00:16;;;;;;;18.57;5.27;;;;;;;;;;4405581;32;20171;-73
2021/01/18 02:02:45;;;;;;;18.67;5.10;;;;;;;;;;4402768;32;20177;-73
2021/01/18 02:06:05;;;;;;;;;;;;;;;;;;;;;
2021/01/18 02:08:39;;;;;;;17.37;5.60;;;;;;;;;;4389884;32;20212;-73
2021/01/18 02:11:05;;;;;;;21.47;5.70;;;;;;;;;;4390543;32;20720;-73
2021/01/18 02:13:49;;;;;;;19.73;5.37;;;;;;;;;;4389159;32;20221;-73
2021/01/18 02:16:33;;;;;;;21.20;5.53;;;;;;;;;;4376039;32;20178;-73
2021/01/18 02:19:18;;;;;;;18.20;5.17;;;;;;;;;;4376123;32;20195;-73
2021/01/18 02:22:02;;;;;;;12.87;5.50;;;;;;;;;;4389569;32;20244;-73
2021/01/18 02:24:48;;;;;;;14.13;5.10;;;;;;;;;;4375863;32;20174;-73
2021/01/18 02:27:22;;;;;;;20.63;5.40;;;;;;;;;;4376625;32;20228;-73
2021/01/18 02:30:02;;;;;;;19.07;5.30;;;;;;;;;;4405098;32;20141;-73
2021/01/18 02:32:27;;;;;;;14.40;5.30;;;;;;;;;;4391046;32;20157;-73
2021/01/18 02:35:12;;;;;;;20.10;6.00;;;;;;;;;;4375604;32;20216;-73
2021/01/18 02:37:56;;;;;;;25.80;5.63;;;;;;;;;;4375585;32;20205;-73
2021/01/18 02:40:29;;;;;;;19.50;6.33;;;;;;;;;;4376119;32;20571;-73
2021/01/18 02:43:14;;;;;;;26.43;6.67;;;;;;;;;;4389899;32;20160;-73
2021/01/18 02:45:40;;;;;;;24.90;6.37;;;;;;;;;;4386439;32;20192;-73
2021/01/18 02:48:06;;;;;;;20.57;7.07;;;;;;;;;;4377210;32;20202;-73
2021/01/18 02:50:32;;;;;;;16.40;6.00;;;;;;;;;;4378792;32;20174;-74
2021/01/18 02:52:59;;;;;;;21.73;6.40;;;;;;;;;;4394203;32;20488;-74
2021/01/18 02:55:24;;;;;;;19.73;5.80;;;;;;;;;;4393476;32;20178;-73
2021/01/18 02:57:51;;;;;;;22.40;7.27;;;;;;;;;;4407878;32;20520;-73
2021/01/18 03:00:30;;;;;;;;;;;;;;;;;;;;;
2021/01/18 03:03:15;;;;;;;19.70;6.27;;;;;;;;;;4403672;32;20509;-73
2021/01/18 03:05:50;;;;;;;16.30;5.10;;;;;;;;;;4407820;32;20528;-73
2021/01/18 03:08:27;;;;;;;17.40;5.03;;;;;;;;;;4407914;32;20221;-73
2021/01/18 03:11:21;;;;;;;;;;;;;;;;;;;;;
2021/01/18 03:13:49;;;;;;;19.23;5.30;;;;;;;;;;4398209;32;20154;-73
2021/01/18 03:16:29;;;;;;;19.23;6.20;;;;;;;;;;4407335;32;20223;-73
2021/01/18 03:18:59;;;;;;;25.53;6.07;;;;;;;;;;4393584;32;20165;-73
2021/01/18 03:21:39;;;;;;;14.47;5.70;;;;;;;;;;4393333;32;20234;-73
2021/01/18 03:24:04;;;;;;;18.33;6.00;;;;;;;;;;4401004;32;20179;-73
2021/01/18 03:26:30;;;;;;;19.90;5.93;;;;;;;;;;4406992;32;20476;-73
2021/01/18 03:28:55;;;;;;;27.50;6.30;;;;;;;;;;4407574;32;20174;-73
2021/01/18 03:31:30;;;;;;;21.30;5.43;;;;;;;;;;4407032;32;20142;-73
2021/01/18 03:34:08;;;;;;;22.93;5.97;;;;;;;;;;4406903;32;20173;-73
2021/01/18 03:36:45;;;;;;;30.27;7.33;;;;;;;;;;4398301;32;20185;-73
2021/01/18 03:39:10;;;;;;;30.10;6.43;;;;;;;;;;4388839;32;20182;-73
2021/01/18 03:44:41;;;;;;;22.50;5.70;;;;;;;;;;4330539;33;20160;-73
2021/01/18 03:47:07;;;;;;;21.10;6.73;;;;;;;;;;4330746;33;20151;-73
2021/01/18 03:49:35;;;;;;;25.23;6.30;;;;;;;;;;4373399;32;20162;-73
2021/01/18 03:52:00;;;;;;;19.67;6.17;;;;;;;;;;4391818;32;20524;-73
2021/01/18 03:54:25;;;;;;;24.43;6.23;;;;;;;;;;4391925;32;20139;-73
2021/01/18 03:56:51;;;;;;;24.27;6.20;;;;;;;;;;4391498;32;20181;-73
2021/01/18 03:59:16;;;;;;;22.50;5.90;;;;;;;;;;4391100;32;20172;-73
2021/01/18 04:01:42;;;;;;;18.40;6.13;;;;;;;;;;4378045;32;20166;-73
2021/01/18 04:04:26;;;;;;;;;;;;;;;;;;;;;
2021/01/18 04:06:51;;;;;;;24.37;7.10;;;;;;;;;;4408023;32;20160;-73
2021/01/18 04:09:27;;;;;;;;;;;;;;;;;;;;;
2021/01/18 04:15:03;;;;;;;35.97;10.17;;;;;;;;;;4388434;32;20215;-73
2021/01/18 04:17:29;;;;;;;40.70;10.07;;;;;;;;;;4406611;32;20142;-74
2021/01/18 04:20:26;;;;;;;21.67;8.70;;;;;;;;;;4406224;32;20307;-74
2021/01/18 04:23:03;;;;;;;;;;;;;;;;;;;;;
2021/01/18 04:25:29;;;;;;;34.13;8.93;;;;;;;;;;4386800;32;20153;-73
2021/01/18 04:28:27;;;;;;;;;;;;;;;;;;;;;
2021/01/18 04:34:16;;;;;;;25.90;9.07;;;;;;;;;;4400382;32;20191;-73
2021/01/18 04:37:18;;;;;;;25.30;7.30;;;;;;;;;;4343793;33;20155;-75
2021/01/18 04:42:48;;;;;;;20.43;6.73;;;;;;;;;;4314861;33;20198;-73
2021/01/18 04:45:14;;;;;;;25.10;7.37;;;;;;;;;;4339065;33;20167;-75
2021/01/18 04:47:41;;;;;;;23.17;7.00;;;;;;;;;;4366863;32;20178;-74
2021/01/18 04:50:39;;;;;;;25.70;6.60;;;;;;;;;;4388562;32;20212;-75
2021/01/18 04:53:28;;;;;;;19.07;7.30;;;;;;;;;;4339815;33;20191;-74
2021/01/18 04:56:16;;;;;;;23.93;6.40;;;;;;;;;;4356471;32;20204;-74
2021/01/18 04:59:02;;;;;;;27.13;7.30;;;;;;;;;;4405720;32;20173;-74
2021/01/18 05:01:29;;;;;;;30.30;8.43;;;;;;;;;;4406015;32;20172;-74
2021/01/18 05:04:02;;;;;;;26.20;7.83;;;;;;;;;;4391837;32;20166;-74
2021/01/18 05:06:46;;;;;;;25.43;6.87;;;;;;;;;;4392195;32;20166;-75
2021/01/18 05:09:22;;;;;;;22.10;7.00;;;;;;;;;;4395510;32;20641;-73
2021/01/18 05:12:04;;;;;;;27.90;7.17;;;;;;;;;;4375921;32;20196;-73
2021/01/18 05:14:30;;;;;;;24.97;6.60;;;;;;;;;;4377254;32;20159;-75
2021/01/18 05:16:56;;;;;;;30.63;7.13;;;;;;;;;;4390209;32;20203;-75
2021/01/18 05:19:47;;;;;;;28.57;7.73;;;;;;;;;;4376798;32;20572;-74
2021/01/18 05:22:13;;;;;;;29.40;7.40;;;;;;;;;;4390875;32;20150;-75
2021/01/18 05:24:38;;;;;;;34.80;8.40;;;;;;;;;;4376399;32;20166;-74
2021/01/18 05:27:04;;;;;;;19.57;7.40;;;;;;;;;;4376388;32;20174;-74
2021/01/18 05:29:38;;;;;;;25.27;6.30;;;;;;;;;;4383464;32;20477;-73
2021/01/18 05:32:20;;;;;;;24.53;6.40;;;;;;;;;;4406071;32;20195;-74
2021/01/18 05:34:45;;;;;;;23.50;6.03;;;;;;;;;;4405605;32;20604;-74
2021/01/18 05:40:33;;;;;;;28.73;6.10;;;;;;;;;;4368847;32;20322;-75
2021/01/18 05:43:00;;;;;;;23.13;6.30;;;;;;;;;;4392058;32;20161;-73
2021/01/18 05:45:27;;;;;;;23.50;6.70;;;;;;;;;;4405054;32;20229;-75
2021/01/18 05:47:55;;;;;;;24.13;6.03;;;;;;;;;;4405017;32;20138;-74
2021/01/18 05:50:45;;;;;;;21.57;6.53;;;;;;;;;;4391330;32;20493;-73
2021/01/18 05:53:24;;;;;;;19.90;6.00;;;;;;;;;;4405396;32;20146;-73
2021/01/18 05:55:49;;;;;;;18.67;6.23;;;;;;;;;;4405289;32;20176;-73
2021/01/18 05:58:39;;;;;;;26.30;5.53;;;;;;;;;;4405192;32;20524;-74
2021/01/18 06:01:04;;;;;;;21.90;5.60;;;;;;;;;;4405489;32;20134;-73
2021/01/18 06:03:31;;;;;;;21.27;6.33;;;;;;;;;;4405309;32;20188;-74
2021/01/18 06:06:42;;;;;;;19.87;6.13;;;;;;;;;;4405058;32;20138;-74
2021/01/18 06:08:52;;;;;;;21.47;5.63;;;;;;;;;;4377821;32;20177;-74
2021/01/18 06:11:30;;;;;;;27.40;6.10;;;;;;;;;;4390444;32;20613;-73
2021/01/18 06:14:00;;;;;;;19.50;6.30;;;;;;;;;;4387912;32;20197;-73
2021/01/18 06:16:25;;;;;;;21.17;6.87;;;;;;;;;;4389112;32;20193;-73
2021/01/18 06:19:05;;;;;;;20.73;6.37;;;;;;;;;;4405773;32;20195;-74
2021/01/18 06:21:50;;;;;;;23.03;6.87;;;;;;;;;;4405005;32;20138;-71
2021/01/18 06:24:20;;;;;;;28.80;6.40;;;;;;;;;;4406014;32;20177;-73
2021/01/18 06:27:04;;;;;;;28.47;6.47;;;;;;;;;;4408119;32;20207;-73
2021/01/18 06:29:36;;;;;;;30.00;7.03;;;;;;;;;;4394753;32;20247;-73
2021/01/18 06:32:04;;;;;;;27.23;6.20;;;;;;;;;;4408268;32;20137;-74
2021/01/18 06:34:41;;;;;;;20.17;5.80;;;;;;;;;;4393864;32;20236;-73
2021/01/18 06:37:34;;;;;;;23.03;5.50;;;;;;;;;;4407267;32;20141;-73
2021/01/18 06:40:03;;;;;;;18.20;5.30;;;;;;;;;;4407411;32;20161;-75
2021/01/18 06:42:29;;;;;;;19.77;4.47;;;;;;;;;;4394381;32;20473;-73
2021/01/18 06:44:54;;;;;;;21.27;4.20;;;;;;;;;;4408018;32;20134;-74
2021/01/18 06:47:25;;;;;;;24.77;4.10;;;;;;;;;;4407495;32;20207;-74
2021/01/18 06:49:51;;;;;;;16.17;4.23;;;;;;;;;;4407565;32;20179;-75
2021/01/18 06:52:29;;;;;;;13.20;3.40;;;;;;;;;;4407451;32;20145;-71
2021/01/18 06:55:07;;;;;;;14.80;4.63;;;;;;;;;;4394554;32;20154;-71
2021/01/18 06:57:51;;;;;;;19.43;4.63;;;;;;;;;;4408222;32;20134;-72
2021/01/18 07:00:17;;;;;;;16.10;4.13;;;;;;;;;;4393539;32;20230;-75
2021/01/18 07:02:56;;;;;;;20.67;3.80;;;;;;;;;;4392952;32;20192;-75
2021/01/18 07:05:57;;;;;;;20.83;3.83;;;;;;;;;;4397590;32;20170;-75
2021/01/18 07:08:31;;;;;;;18.40;3.80;;;;;;;;;;4387114;32;20178;-75
2021/01/18 07:10:59;;;;;;;18.63;4.03;;;;;;;;;;4378286;32;20292;-73
2021/01/18 07:13:25;;;;;;;16.60;3.83;;;;;;;;;;4392100;32;20161;-73
2021/01/18 07:15:52;;;;;;;17.33;4.57;;;;;;;;;;4391902;32;20460;-73
2021/01/18 07:21:04;;;;;;;19.83;3.90;;;;;;;;;;4363526;32;20460;-71
2021/01/18 07:23:45;;;;;;;18.33;4.23;;;;;;;;;;4398306;32;20162;-73
2021/01/18 07:26:15;;;;;;;20.13;4.40;;;;;;;;;;4404917;32;20766;-72
2021/01/18 07:28:53;;;;;;;18.03;3.53;;;;;;;;;;4421179;32;20157;-74
2021/01/18 07:31:30;;;;;;;23.23;4.50;;;;;;;;;;4422048;32;20133;-73
2021/01/18 07:34:06;;;;;;;;;;;;;;;;;;;;;
2021/01/18 07:36:32;;;;;;;19.37;4.70;;;;;;;;;;4407156;32;20526;-73
2021/01/18 07:39:27;;;;;;;18.57;4.10;;;;;;;;;;4387383;32;20162;-73
2021/01/18 07:42:30;;;;;;;19.93;3.80;;;;;;;;;;4359215;32;20566;-72
2021/01/18 07:44:48;;;;;;;17.70;3.53;;;;;;;;;;4397491;32;20190;-73
2021/01/18 07:47:55;;;;;;;21.00;4.17;;;;;;;;;;4406422;32;20622;-74
2021/01/18 07:50:29;;;;;;;19.30;4.07;;;;;;;;;;4383030;32;20193;-72
2021/01/18 07:53:04;;;;;;;21.90;4.50;;;;;;;;;;4392604;32;20168;-72
2021/01/18 07:55:30;;;;;;;16.70;3.87;;;;;;;;;;4390961;32;20161;-71
2021/01/18 07:58:12;;;;;;;23.87;5.03;;;;;;;;;;4390767;32;20239;-73
2021/01/18 08:01:09;;;;;;;17.10;3.83;;;;;;;;;;4387508;32;20212;-72
2021/01/18 08:03:50;;;;;;;18.23;4.30;;;;;;;;;;4384914;32;20162;-74
2021/01/18 08:06:19;;;;;;;18.07;4.40;;;;;;;;;;4375974;32;20208;-73
2021/01/18 08:12:39;;;;;;;18.87;4.67;;;;;;;;;;4328055;33;20174;-73
2021/01/18 08:15:13;;;;;;;16.87;5.03;;;;;;;;;;4329312;33;20164;-74
2021/01/18 08:18:23;;;;;;;21.90;5.13;;;;;;;;;;4329776;33;20155;-73
2021/01/18 08:20:28;;;;;;;22.47;5.37;;;;;;;;;;4326947;33;20191;-73
2021/01/18 08:22:56;;;;;;;17.87;5.57;;;;;;;;;;4362531;32;20208;-74
2021/01/18 08:25:29;;;;;;;23.23;5.83;;;;;;;;;;4391109;32;20135;-73
2021/01/18 08:27:55;;;;;;;20.43;5.53;;;;;;;;;;4391000;32;20150;-74
2021/01/18 08:30:39;;;;;;;21.33;5.87;;;;;;;;;;4394898;32;20620;-72
2021/01/18 08:33:05;;;;;;;22.10;6.13;;;;;;;;;;4397769;32;20184;-73
2021/01/18 08:35:58;;;;;;;20.77;6.10;;;;;;;;;;4390999;32;20192;-73
2021/01/18 08:38:25;;;;;;;22.77;6.33;;;;;;;;;;4384284;32;20603;-73
2021/01/18 08:41:09;;;;;;;22.20;6.13;;;;;;;;;;4392078;32;20276;-72
2021/01/18 08:43:54;;;;;;;25.67;6.17;;;;;;;;;;4392307;32;20162;-72
2021/01/18 08:46:49;;;;;;;18.30;5.60;;;;;;;;;;4405809;32;20145;-73
2021/01/18 08:49:43;;;;;;;18.97;5.70;;;;;;;;;;4341552;32;20179;-72
2021/01/18 08:52:16;;;;;;;20.90;6.00;;;;;;;;;;4392031;32;20600;-72
2021/01/18 08:54:41;;;;;;;25.50;5.67;;;;;;;;;;4392177;32;20167;-75
2021/01/18 08:57:19;;;;;;;19.07;4.83;;;;;;;;;;4391534;32;20629;-73
2021/01/18 08:59:45;;;;;;;20.43;5.53;;;;;;;;;;4376819;32;20170;-73
2021/01/18 09:02:17;;;;;;;26.43;6.50;;;;;;;;;;4377251;32;20189;-72
2021/01/18 09:04:42;;;;;;;23.57;5.40;;;;;;;;;;4389084;32;20197;-73
2021/01/18 09:07:09;;;;;;;19.47;5.30;;;;;;;;;;4390775;32;20541;-71
2021/01/18 09:09:38;;;;;;;20.10;5.03;;;;;;;;;;4376801;32;20166;-73
2021/01/18 09:12:07;;;;;;;20.83;4.83;;;;;;;;;;4390285;32;20166;-72
2021/01/18 09:17:40;;;;;;;16.83;5.47;;;;;;;;;;4396996;32;20178;-74
2021/01/18 09:20:07;;;;;;;26.87;5.23;;;;;;;;;;4405850;32;20216;-74
2021/01/18 09:22:46;;;;;;;18.87;4.90;;;;;;;;;;4391968;32;20544;-73
2021/01/18 09:25:16;;;;;;;17.40;5.33;;;;;;;;;;4403569;32;20320;-73
2021/01/18 09:27:53;;;;;;;105.13;44.67;;;;;;;;;;4402890;32;20158;-74
2021/01/18 09:30:18;;;;;;;288.43;140.00;;;;;;;;;;4390647;32;20139;-73
2021/01/18 09:32:54;;;;;;;117.50;58.17;;;;;;;;;;4376669;32;20238;-73
2021/01/18 09:35:19;;;;;;;66.03;34.97;;;;;;;;;;4376587;32;20166;-73
2021/01/18 09:37:46;;;;;;;71.37;37.67;;;;;;;;;;4390290;32;20176;-69
2021/01/18 09:43:08;;;;;;;20.30;5.30;;;;;;;;;;4389862;32;20216;-73
2021/01/18 09:45:34;;;;;;;24.37;7.70;;;;;;;;;;4389907;32;20235;-73
2021/01/18 09:48:11;;;;;;;21.77;5.43;;;;;;;;;;4376421;32;20534;-73
2021/01/18 09:50:53;;;;;;;;;;;;;;;;;;;;;
2021/01/18 09:53:27;;;;;;;20.83;5.57;;;;;;;;;;4389747;32;20146;-73
2021/01/18 09:55:54;;;;;;;19.33;4.43;;;;;;;;;;4375823;32;20165;-74
2021/01/18 09:58:34;;;;;;;18.43;4.33;;;;;;;;;;4388906;32;20146;-73
2021/01/18 10:01:00;;;;;;;24.90;4.57;;;;;;;;;;4390575;32;20212;-74
2021/01/18 10:03:56;;;;;;;14.47;4.30;;;;;;;;;;4390066;32;20170;-73
2021/01/18 10:06:40;;;;;;;;;;;;;;;;;;;;;
2021/01/18 10:09:18;;;;;;;24.00;7.97;;;;;;;;;;4389483;32;20204;-73
2021/01/18 10:11:52;;;;;;;21.00;5.70;;;;;;;;;;4361589;32;20185;-72
2021/01/18 10:14:25;;;;;;;19.83;4.37;;;;;;;;;;4371949;32;20220;-74
2021/01/18 10:17:07;;;;;;;19.87;4.50;;;;;;;;;;4375964;32;20225;-74
2021/01/18 10:19:34;;;;;;;20.20;4.73;;;;;;;;;;4386320;32;20192;-74
2021/01/18 10:22:00;;;;;;;21.20;5.13;;;;;;;;;;4381640;32;20219;-73
2021/01/18 10:24:35;;;;;;;14.67;4.03;;;;;;;;;;4375633;32;20201;-74
2021/01/18 10:30:21;;;;;;;13.87;4.30;;;;;;;;;;4358704;32;20191;-72
2021/01/18 10:35:29;;;;;;;14.13;4.23;;;;;;;;;;4374490;32;20523;-73
2021/01/18 10:38:14;;;;;;;11.77;3.70;;;;;;;;;;4375703;32;20159;-73
2021/01/18 10:40:47;;;;;;;16.57;4.47;;;;;;;;;;4388725;32;20223;-74
2021/01/18 10:43:13;;;;;;;13.77;4.57;;;;;;;;;;4404578;32;20243;-74
2021/01/18 10:45:39;;;;;;;13.47;5.17;;;;;;;;;;4392990;32;20158;-73
2021/01/18 10:48:17;;;;;;;24.10;5.03;;;;;;;;;;4393388;32;20151;-74
2021/01/18 10:50:44;;;;;;;12.87;4.37;;;;;;;;;;4390564;32;20177;-75
2021/01/18 10:53:13;;;;;;;15.90;3.47;;;;;;;;;;4390271;32;20231;-74
2021/01/18 10:55:44;;;;;;;18.10;2.73;;;;;;;;;;4390739;32;20169;-73
2021/01/18 10:58:47;;;;;;;13.07;3.13;;;;;;;;;;4390251;32;20178;-73
2021/01/18 11:04:40;;;;;;;11.70;2.40;;;;;;;;;;4380803;32;20675;-73
2021/01/18 11:07:11;;;;;;;12.50;2.57;;;;;;;;;;4388337;32;20194;-74
2021/01/18 11:10:07;;;;;;;19.57;3.03;;;;;;;;;;4375607;32;20649;-72
2021/01/18 11:12:38;;;;;;;18.23;3.80;;;;;;;;;;4390822;32;20166;-73
2021/01/18 11:18:20;;;;;;;;;;;;;;;;;;;;;
2021/01/18 11:20:50;;;;;;;14.07;3.17;;;;;;;;;;4406977;32;20492;-73
2021/01/18 11:23:15;;;;;;;9.40;2.70;;;;;;;;;;4407235;32;20138;-74
2021/01/18 11:29:11;;;;;;;12.20;2.83;;;;;;;;;;4369288;32;20599;-73
2021/01/18 11:31:45;;;;;;;13.50;2.50;;;;;;;;;;4407051;32;20731;-74
2021/01/18 11:34:11;;;;;;;10.17;2.20;;;;;;;;;;4408334;32;20501;-71
2021/01/18 11:36:54;;;;;;;11.30;2.60;;;;;;;;;;4422030;32;20208;-74
2021/01/18 11:39:23;;;;;;;12.02;2.50;;;;;;;;;;4407967;32;20220;-73
2021/01/18 11:41:58;;;;;;;9.65;2.35;;;;;;;;;;4421111;32;20157;-73
2021/01/18 11:44:26;;;;;;;13.43;3.87;;;;;;;;;;4421858;32;20140;-74
2021/01/18 11:46:55;;;;;;;11.70;3.03;;;;;;;;;;4421912;32;20570;-73
2021/01/18 11:49:21;;;;;;;11.80;3.07;;;;;;;;;;4408035;32;20162;-75
2021/01/18 11:51:46;;;;;;;14.67;2.87;;;;;;;;;;4407585;32;20212;-73
2021/01/18 11:54:11;;;;;;;14.60;2.70;;;;;;;;;;4421380;32;20191;-75
2021/01/18 11:56:36;;;;;;;16.57;3.00;;;;;;;;;;4391682;32;20165;-74
2021/01/18 11:59:05;;;;;;;10.82;3.00;;;;;;;;;;4392183;32;20530;-73
2021/01/18 12:01:30;;;;;;;13.57;2.80;;;;;;;;;;4392170;32;20166;-74
2021/01/18 12:04:03;;;;;;;10.30;2.40;;;;;;;;;;4406344;32;20207;-73
2021/01/18 12:06:50;;;;;;;11.75;2.35;;;;;;;;;;4382481;32;20239;-73
2021/01/18 12:09:17;;;;;;;12.18;2.60;;;;;;;;;;4396066;32;20221;-72
2021/01/18 12:11:45;;;;;;;11.77;2.70;;;;;;;;;;4405902;32;20141;-75
2021/01/18 12:14:11;;;;;;;11.25;2.62;;;;;;;;;;4404605;32;20164;-74
2021/01/18 12:19:38;;;;;;;15.98;2.47;;;;;;;;;;4289840;33;20212;-73
2021/01/18 12:22:16;;;;;;;13.10;2.53;;;;;;;;;;4339647;33;20467;-74
2021/01/18 12:24:47;;;;;;;12.87;2.67;;;;;;;;;;4372891;32;20192;-74
2021/01/18 12:27:44;;;;;;;12.80;2.40;;;;;;;;;;4390673;32;20143;-74
2021/01/18 12:30:49;;;;;;;12.97;2.67;;;;;;;;;;4391812;32;20250;-72
2021/01/18 12:33:14;;;;;;;14.70;2.87;;;;;;;;;;4405885;32;20594;-74
2021/01/18 12:35:52;;;;;;;14.93;2.93;;;;;;;;;;4391818;32;20165;-74
2021/01/18 12:38:23;;;;;;;12.70;3.10;;;;;;;;;;4381682;32;20227;-73
2021/01/18 12:40:55;;;;;;;9.50;2.43;;;;;;;;;;4405918;32;20142;-73
2021/01/18 12:43:21;;;;;;;15.13;2.70;;;;;;;;;;4392360;32;20231;-73
2021/01/18 12:46:00;;;;;;;;;;;;;;;;;;;;;
2021/01/18 12:48:33;;;;;;;11.83;2.30;;;;;;;;;;4405640;32;20173;-73
2021/01/18 12:51:15;;;;;;;11.80;2.35;;;;;;;;;;4405527;32;20200;-73
2021/01/18 12:53:43;;;;;;;13.30;2.40;;;;;;;;;;4391715;32;20622;-73
2021/01/18 12:56:09;;;;;;;12.73;2.58;;;;;;;;;;4392062;32;20158;-73
2021/01/18 12:58:35;;;;;;;10.30;2.12;;;;;;;;;;4405183;32;20203;-74
2021/01/18 13:01:06;;;;;;;10.55;2.15;;;;;;;;;;4390113;32;20201;-74
2021/01/18 13:03:32;;;;;;;12.45;2.22;;;;;;;;;;4418011;32;20153;-74
2021/01/18 13:05:57;;;;;;;13.97;2.10;;;;;;;;;;4392415;32;20196;-75
2021/01/18 13:08:22;;;;;;;14.73;2.20;;;;;;;;;;4401766;32;20154;-75
2021/01/18 13:13:59;;;;;;;14.43;2.23;;;;;;;;;;4412734;32;20543;-74
2021/01/18 13:16:25;;;;;;;13.07;2.43;;;;;;;;;;4420930;32;20141;-75
2021/01/18 13:19:02;;;;;;;9.05;2.37;;;;;;;;;;4420025;32;20146;-75
2021/01/18 13:25:18;;;;;;;;;;;;;;;;;;;;;
2021/01/18 13:28:07;;;;;;;11.07;2.00;;;;;;;;;;4335002;33;20155;-74
2021/01/18 13:31:06;;;;;;;13.63;2.73;;;;;;;;;;4329837;33;20205;-74
2021/01/18 13:33:31;;;;;;;15.27;2.80;;;;;;;;;;4352644;32;20178;-75
2021/01/18 13:35:56;;;;;;;15.27;2.20;;;;;;;;;;4385341;32;20570;-75
2021/01/18 13:38:29;;;;;;;13.17;2.90;;;;;;;;;;4404153;32;20247;-74
2021/01/18 13:47:25;;;;;;;13.23;2.30;;;;;;;;;;4327827;33;20606;-75
2021/01/18 13:50:08;;;;;;;12.67;2.13;;;;;;;;;;4328659;33;20152;-74
2021/01/18 13:52:55;;;;;;;10.13;2.27;;;;;;;;;;4327780;33;20178;-74
2021/01/18 13:58:37;;;;;;;;;;;;;;;;;;;;;
2021/01/18 14:04:32;;;;;;;6.90;1.70;;;;;;;;;;4362459;32;20219;-75
2021/01/18 14:06:57;;;;;;;8.70;2.20;;;;;;;;;;4328378;33;20156;-75
2021/01/18 14:09:47;;;;;;;9.27;1.80;;;;;;;;;;4383938;32;20548;-74
2021/01/18 14:12:18;;;;;;;12.03;1.87;;;;;;;;;;4385703;32;20201;-75
2021/01/18 14:15:05;;;;;;;11.83;1.63;;;;;;;;;;4389621;32;20161;-74
2021/01/18 14:17:52;;;;;;;;;;;;;;;;;;;;;
2021/01/18 14:20:28;;;;;;;10.83;2.23;;;;;;;;;;4388697;32;20181;-74
2021/01/18 14:26:04;;;;;;;8.97;2.47;;;;;;;;;;4389043;32;20245;-73
2021/01/18 14:28:29;;;;;;;10.33;1.97;;;;;;;;;;4386046;32;20155;-74
2021/01/18 14:31:06;;;;;;;11.07;2.13;;;;;;;;;;4374829;32;20517;-74
2021/01/18 14:33:31;;;;;;;14.80;2.60;;;;;;;;;;4401759;32;20249;-74
2021/01/18 14:36:02;;;;;;;9.90;2.40;;;;;;;;;;4404708;32;20578;-73
2021/01/18 14:39:04;;;;;;;;;;;;;;;;;;;;;
2021/01/18 14:44:03;;;;;;;12.43;2.07;;;;;;;;;;4418521;32;20206;-73
2021/01/18 14:46:29;;;;;;;18.10;4.07;;;;;;;;;;4421600;32;20199;-72
2021/01/18 14:49:03;;;;;;;11.07;2.37;;;;;;;;;;4401540;32;20198;-73
2021/01/18 14:51:49;;;;;;;20.10;2.90;;;;;;;;;;4407667;32;20146;-74
2021/01/18 14:54:15;;;;;;;7.20;1.87;;;;;;;;;;4393282;32;20211;-73
2021/01/18 14:56:43;;;;;;;8.93;1.50;;;;;;;;;;4407177;32;20558;-72
2021/01/18 14:59:40;;;;;;;7.67;1.77;;;;;;;;;;4399488;32;20154;-72
2021/01/18 15:02:40;;;;;;;13.80;1.90;;;;;;;;;;4397678;32;20246;-72
2021/01/18 15:05:10;;;;;;;10.23;2.37;;;;;;;;;;4402264;32;20780;-72
2021/01/18 15:07:36;;;;;;;12.60;2.20;;;;;;;;;;4406746;32;20238;-73
2021/01/18 15:10:02;;;;;;;11.87;2.00;;;;;;;;;;4392890;32;20170;-73
2021/01/18 15:12:28;;;;;;;9.73;2.00;;;;;;;;;;4396583;32;20159;-73
2021/01/18 15:15:02;;;;;;;8.93;1.90;;;;;;;;;;4405547;32;20169;-74
2021/01/18 15:17:28;;;;;;;7.90;1.90;;;;;;;;;;4406747;32;20158;-72
2021/01/18 15:19:53;;;;;;;10.50;1.83;;;;;;;;;;4407036;32;20229;-70
2021/01/18 15:22:18;;;;;;;8.77;1.50;;;;;;;;;;4404092;32;20202;-71
2021/01/18 15:24:44;;;;;;;7.93;1.50;;;;;;;;;;4381130;32;20173;-72
2021/01/18 15:27:12;;;;;;;6.77;1.40;;;;;;;;;;4399194;32;20149;-72
2021/01/18 15:29:41;;;;;;;11.30;2.63;;;;;;;;;;4410651;32;20146;-72
2021/01/18 15:32:07;;;;;;;8.23;1.63;;;;;;;;;;4389503;32;20476;-72
2021/01/18 15:34:46;;;;;;;12.50;2.03;;;;;;;;;;4396585;32;20177;-72
2021/01/18 15:37:12;;;;;;;13.77;2.30;;;;;;;;;;4390440;32;20230;-73
2021/01/18 15:39:37;;;;;;;13.57;2.77;;;;;;;;;;4405980;32;20499;-72
2021/01/18 15:42:13;;;;;;;12.97;2.40;;;;;;;;;;4412452;32;20624;-71
2021/01/18 15:44:39;;;;;;;11.13;2.47;;;;;;;;;;4407576;32;20149;-73
2021/01/18 15:47:04;;;;;;;12.17;2.67;;;;;;;;;;4405995;32;20176;-73
2021/01/18 15:49:41;;;;;;;9.93;2.50;;;;;;;;;;4396693;32;20138;-73
2021/01/18 15:52:15;;;;;;;20.20;3.60;;;;;;;;;;4386805;32;20193;-71
2021/01/18 15:54:43;;;;;;;14.97;2.73;;;;;;;;;;4407289;32;20220;-69
2021/01/18 15:57:08;;;;;;;10.53;2.57;;;;;;;;;;4405547;32;20235;-71
2021/01/18 15:59:34;;;;;;;12.60;2.60;;;;;;;;;;4384362;32;20182;-72
2021/01/18 16:02:05;;;;;;;9.07;2.07;;;;;;;;;;4380804;32;20166;-71
2021/01/18 16:04:30;;;;;;;9.10;2.23;;;;;;;;;;4406356;32;20181;-73
2021/01/18 16:07:04;;;;;;;13.70;2.40;;;;;;;;;;4405840;32;20533;-72
2021/01/18 16:09:30;;;;;;;12.67;2.60;;;;;;;;;;4386278;32;20169;-72
2021/01/18 16:11:57;;;;;;;7.93;1.90;;;;;;;;;;4405941;32;20134;-73
2021/01/18 16:15:36;;;;;;;;;;;;;;;;;;;;;
2021/01/18 16:17:27;;;;;;;10.10;2.00;;;;;;;;;;4385669;32;20228;-72
2021/01/18 16:19:59;;;;;;;8.90;2.03;;;;;;;;;;4404270;32;20209;-74
2021/01/18 16:25:42;;;;;;;13.07;2.20;;;;;;;;;;4329890;33;20198;-73
2021/01/18 16:28:07;;;;;;;11.07;2.57;;;;;;;;;;4348965;32;20251;-73
2021/01/18 16:30:51;;;;;;;9.03;1.90;;;;;;;;;;4385092;32;20221;-73
2021/01/18 16:33:16;;;;;;;9.53;2.63;;;;;;;;;;4380016;32;20209;-71
2021/01/18 16:38:31;;;;;;;6.83;1.43;;;;;;;;;;4354765;32;20190;-74
2021/01/18 16:41:03;;;;;;;6.60;1.70;;;;;;;;;;4381596;32;20329;-71